Time;durP1;ratioP1;P1;durP2;ratioP2;P2;SDS_P1;SDS_P2;PMS_P1;PMS_P2;Temp;Humidity;BMP_temperature;BMP_pressure;BME280_temperature;BME280_humidity;BME280_pressure;Samples;Min_cycle;Max_cycle;Signal;HPM_P1;HPM_P2
2023/09/07 00:01:54;;;;;;;2.70;2.50;;;16.20;99.90;;;;;;5091584;28;20414;-70
2023/09/07 00:04:22;;;;;;;4.30;3.20;;;16.10;99.90;;;;;;5090179;28;20185;-70
2023/09/07 00:06:49;;;;;;;3.20;2.90;;;16.20;99.90;;;;;;5091320;28;20750;-70
2023/09/07 00:09:16;;;;;;;10.10;3.23;;;16.30;99.90;;;;;;5091499;28;20506;-70
2023/09/07 00:11:41;;;;;;;4.10;3.23;;;16.20;99.90;;;;;;5091453;28;20436;-70
2023/09/07 00:14:07;;;;;;;2.83;2.63;;;16.20;99.90;;;;;;5091192;28;20418;-70
2023/09/07 00:16:38;;;;;;;5.57;3.00;;;16.10;99.90;;;;;;5089761;28;20449;-70
2023/09/07 00:19:04;;;;;;;4.60;3.10;;;16.00;99.90;;;;;;5089986;28;20231;-70
2023/09/07 00:21:30;;;;;;;4.40;2.97;;;16.10;99.90;;;;;;5091280;28;20867;-70
2023/09/07 00:23:55;;;;;;;7.60;2.70;;;16.00;99.90;;;;;;5089729;28;20423;-70
2023/09/07 00:26:21;;;;;;;3.90;3.40;;;16.00;99.90;;;;;;5091109;28;20276;-70
2023/09/07 00:28:47;;;;;;;3.00;2.70;;;15.90;99.90;;;;;;5091414;28;20193;-70
2023/09/07 00:31:13;;;;;;;7.30;3.30;;;15.90;99.90;;;;;;5089653;28;20300;-70
2023/09/07 00:33:39;;;;;;;3.50;3.20;;;15.80;99.90;;;;;;5091051;28;20510;-70
2023/09/07 00:36:05;;;;;;;7.40;3.67;;;15.80;99.90;;;;;;5090992;28;20202;-70
2023/09/07 00:38:30;;;;;;;3.43;3.10;;;15.70;99.90;;;;;;5089354;28;20267;-70
2023/09/07 00:40:56;;;;;;;3.30;2.90;;;15.70;99.90;;;;;;5090870;28;20185;-70
2023/09/07 00:43:22;;;;;;;4.93;2.80;;;15.70;99.90;;;;;;5090951;28;20222;-71
2023/09/07 00:45:47;;;;;;;6.87;3.30;;;15.60;99.90;;;;;;5090691;28;20212;-70
2023/09/07 00:48:14;;;;;;;3.50;3.20;;;15.60;99.90;;;;;;5090911;28;20672;-70
2023/09/07 00:50:41;;;;;;;5.63;3.70;;;15.60;99.90;;;;;;5090683;28;20211;-70
2023/09/07 00:53:07;;;;;;;4.93;3.30;;;15.50;99.90;;;;;;5090719;28;20503;-70
2023/09/07 00:55:34;;;;;;;4.37;3.40;;;15.50;99.90;;;;;;5072081;28;20580;-70
2023/09/07 00:58:01;;;;;;;4.23;3.20;;;15.50;99.90;;;;;;5090695;28;20733;-70
2023/09/07 01:00:27;;;;;;;7.53;3.60;;;15.40;99.90;;;;;;5090520;28;20784;-70
2023/09/07 01:02:52;;;;;;;4.70;3.67;;;15.40;99.90;;;;;;5090391;28;20426;-70
2023/09/07 01:05:21;;;;;;;4.30;3.57;;;15.40;99.90;;;;;;5090084;28;20443;-70
2023/09/07 01:07:53;;;;;;;4.50;3.80;;;15.40;99.90;;;;;;5090537;28;20198;-70
2023/09/07 01:10:20;;;;;;;8.23;3.30;;;15.30;99.90;;;;;;5090099;28;20465;-70
2023/09/07 01:12:46;;;;;;;3.53;3.20;;;15.30;99.90;;;;;;5090448;28;20447;-70
2023/09/07 01:15:11;;;;;;;4.50;3.20;;;15.40;99.90;;;;;;5090179;28;20470;-70
2023/09/07 01:17:38;;;;;;;4.07;3.40;;;15.40;99.90;;;;;;5071699;28;20654;-70
2023/09/07 01:20:11;;;;;;;4.20;3.10;;;15.40;99.90;;;;;;5090044;28;20184;-69
2023/09/07 01:22:38;;;;;;;4.10;3.30;;;15.30;99.90;;;;;;5090246;28;20422;-70
2023/09/07 01:25:06;;;;;;;3.40;2.90;;;15.20;99.90;;;;;;5088463;28;20424;-70
2023/09/07 01:27:32;;;;;;;4.57;3.60;;;15.20;99.90;;;;;;5090015;28;20480;-70
2023/09/07 01:29:58;;;;;;;9.23;3.50;;;15.10;99.90;;;;;;5089834;28;20501;-69
2023/09/07 01:32:24;;;;;;;6.03;3.57;;;15.00;99.90;;;;;;5088672;28;20443;-70
2023/09/07 01:34:50;;;;;;;4.63;3.60;;;14.90;99.90;;;;;;5088489;28;20561;-70
2023/09/07 01:37:16;;;;;;;3.90;3.33;;;15.00;99.90;;;;;;5088645;28;20416;-70
2023/09/07 01:39:41;;;;;;;3.80;3.23;;;15.00;99.90;;;;;;5088253;28;20192;-70
2023/09/07 01:42:07;;;;;;;4.77;3.90;;;15.00;99.90;;;;;;5088442;28;20184;-70
2023/09/07 01:44:32;;;;;;;3.97;3.40;;;15.00;99.90;;;;;;5071642;28;20188;-70
2023/09/07 01:46:58;;;;;;;5.80;3.77;;;15.00;99.90;;;;;;5089606;28;20213;-69
2023/09/07 01:49:24;;;;;;;4.83;4.13;;;14.90;99.90;;;;;;5089525;28;20280;-70
2023/09/07 01:51:52;;;;;;;4.80;3.80;;;14.70;99.90;;;;;;5089559;28;20209;-70
2023/09/07 01:54:18;;;;;;;4.50;4.10;;;14.70;99.90;;;;;;5089517;28;20194;-70
2023/09/07 01:56:44;;;;;;;4.57;4.10;;;14.80;99.90;;;;;;5088076;28;20934;-70
2023/09/07 01:59:09;;;;;;;4.97;4.47;;;14.80;99.90;;;;;;5089631;28;20409;-70
2023/09/07 02:01:37;;;;;;;7.33;4.90;;;14.80;99.90;;;;;;5089121;28;20188;-70
2023/09/07 02:04:03;;;;;;;6.33;4.00;;;14.90;99.90;;;;;;5089629;28;20653;-70
2023/09/07 02:06:28;;;;;;;5.10;3.73;;;14.80;99.90;;;;;;5089316;28;20438;-70
2023/09/07 02:08:54;;;;;;;8.10;3.90;;;14.90;99.90;;;;;;5089373;28;20213;-70
2023/09/07 02:11:19;;;;;;;7.07;4.00;;;15.00;99.90;;;;;;5089568;28;20223;-69
2023/09/07 02:13:47;;;;;;;5.10;3.80;;;14.90;99.90;;;;;;5089886;28;20209;-69
2023/09/07 02:16:13;;;;;;;5.23;4.27;;;15.00;99.90;;;;;;5089740;28;20200;-69
2023/09/07 02:18:43;;;;;;;12.93;3.97;;;14.90;99.90;;;;;;5089587;28;20432;-70
2023/09/07 02:21:09;;;;;;;7.10;3.70;;;15.00;99.90;;;;;;5087818;28;20184;-69
2023/09/07 02:23:38;;;;;;;5.17;3.97;;;15.00;99.90;;;;;;5089620;28;20433;-70
2023/09/07 02:26:04;;;;;;;6.90;4.20;;;14.90;99.90;;;;;;5089843;28;20437;-71
2023/09/07 02:28:30;;;;;;;6.33;4.47;;;14.80;99.90;;;;;;5089812;28;20420;-69
2023/09/07 02:31:03;;;;;;;5.80;3.77;;;14.80;99.90;;;;;;5089592;28;20470;-69
2023/09/07 02:33:29;;;;;;;7.70;4.80;;;14.70;99.90;;;;;;5088508;28;20485;-70
2023/09/07 02:35:54;;;;;;;6.07;4.00;;;14.70;99.90;;;;;;5088269;28;20545;-70
2023/09/07 02:38:20;;;;;;;5.07;4.40;;;14.70;99.90;;;;;;5089489;28;20189;-70
2023/09/07 02:40:46;;;;;;;5.33;4.50;;;14.60;99.90;;;;;;5089342;28;20217;-70
2023/09/07 02:43:11;;;;;;;5.57;4.30;;;14.60;99.90;;;;;;5089195;28;20215;-69
2023/09/07 02:45:38;;;;;;;8.07;4.93;;;14.60;99.90;;;;;;5089199;28;20206;-70
2023/09/07 02:48:04;;;;;;;7.53;4.07;;;14.50;99.90;;;;;;5089111;28;20179;-69
2023/09/07 02:50:33;;;;;;;4.57;4.13;;;14.60;99.90;;;;;;5088883;28;21039;-70
2023/09/07 02:52:59;;;;;;;6.33;4.77;;;14.60;99.90;;;;;;5088836;28;20410;-69
2023/09/07 02:55:25;;;;;;;6.83;4.90;;;14.60;99.90;;;;;;5088826;28;20461;-69
2023/09/07 02:57:51;;;;;;;5.00;4.50;;;14.60;99.90;;;;;;5088668;28;20415;-70
2023/09/07 03:00:17;;;;;;;4.20;3.80;;;14.50;99.90;;;;;;5087538;28;20803;-69
2023/09/07 03:02:43;;;;;;;5.50;4.80;;;14.50;99.90;;;;;;5088784;28;20184;-69
2023/09/07 03:05:09;;;;;;;6.10;4.93;;;14.50;99.90;;;;;;5088657;28;21001;-70
2023/09/07 03:07:35;;;;;;;6.33;5.30;;;14.30;99.90;;;;;;5087252;28;20427;-70
2023/09/07 03:10:01;;;;;;;6.70;5.07;;;14.30;99.90;;;;;;5088578;28;20472;-69
2023/09/07 03:12:27;;;;;;;6.73;4.30;;;14.40;99.90;;;;;;5087443;28;20324;-69
2023/09/07 03:14:53;;;;;;;7.20;4.83;;;14.30;99.90;;;;;;5091496;28;20505;-69
2023/09/07 03:17:20;;;;;;;6.83;5.27;;;14.20;99.90;;;;;;5092930;28;20992;-69
2023/09/07 03:19:46;;;;;;;6.40;4.60;;;14.30;99.90;;;;;;5074952;28;20568;-70
2023/09/07 03:22:12;;;;;;;6.37;5.30;;;14.30;99.90;;;;;;5093172;28;20433;-69
2023/09/07 03:24:38;;;;;;;9.70;5.30;;;14.20;99.90;;;;;;5091924;28;20418;-70
2023/09/07 03:27:05;;;;;;;5.87;5.03;;;14.20;99.90;;;;;;5092985;28;20426;-70
2023/09/07 03:29:33;;;;;;;5.63;5.03;;;14.20;99.90;;;;;;5091643;28;20180;-70
2023/09/07 03:31:59;;;;;;;5.50;5.00;;;14.20;99.90;;;;;;5093099;28;20419;-69
2023/09/07 03:34:25;;;;;;;15.50;5.13;;;14.10;99.90;;;;;;5093051;28;20493;-70
2023/09/07 03:36:50;;;;;;;5.63;4.73;;;14.10;99.90;;;;;;5092765;28;20492;-70
2023/09/07 03:39:18;;;;;;;8.27;5.40;;;14.10;99.90;;;;;;5092685;28;20174;-69
2023/09/07 03:41:44;;;;;;;6.30;5.43;;;14.20;99.90;;;;;;5092331;28;20214;-70
2023/09/07 03:44:10;;;;;;;8.30;5.50;;;14.20;99.90;;;;;;5092493;28;20449;-70
2023/09/07 03:46:35;;;;;;;8.57;6.17;;;14.20;99.90;;;;;;5092013;28;20269;-70
2023/09/07 03:49:01;;;;;;;6.33;5.10;;;14.20;99.90;;;;;;5092030;28;20195;-70
2023/09/07 03:51:26;;;;;;;7.20;4.93;;;14.20;99.90;;;;;;5091858;28;20294;-70
2023/09/07 03:53:52;;;;;;;10.90;5.93;;;14.00;99.90;;;;;;5092016;28;20203;-70
2023/09/07 03:56:17;;;;;;;7.73;5.47;;;14.20;99.90;;;;;;5090106;28;20296;-70
2023/09/07 03:58:43;;;;;;;11.23;5.70;;;14.20;99.90;;;;;;5091837;28;20769;-70
2023/09/07 04:01:08;;;;;;;6.60;5.80;;;14.20;99.90;;;;;;5090298;28;20195;-70
2023/09/07 04:03:34;;;;;;;6.83;5.97;;;14.20;99.90;;;;;;5091680;28;20187;-70
2023/09/07 04:06:00;;;;;;;5.40;4.80;;;14.20;99.90;;;;;;5091362;28;20648;-70
2023/09/07 04:08:25;;;;;;;9.57;5.30;;;14.30;99.90;;;;;;5090203;28;20274;-71
2023/09/07 04:10:51;;;;;;;6.87;5.90;;;14.20;99.90;;;;;;5091320;28;20557;-70
2023/09/07 04:13:16;;;;;;;6.90;5.77;;;14.20;99.90;;;;;;5091389;28;20207;-70
2023/09/07 04:15:44;;;;;;;6.73;5.80;;;14.10;99.90;;;;;;5091388;28;20202;-70
2023/09/07 04:18:15;;;;;;;10.00;5.60;;;14.10;99.90;;;;;;5091547;28;20739;-70
2023/09/07 04:20:40;;;;;;;6.03;5.27;;;14.10;99.90;;;;;;5091698;28;21006;-70
2023/09/07 04:23:06;;;;;;;7.40;6.67;;;14.20;99.90;;;;;;5091287;28;20421;-70
2023/09/07 04:25:32;;;;;;;6.60;5.90;;;14.20;99.90;;;;;;5090860;28;20211;-70
2023/09/07 04:27:58;;;;;;;6.10;5.50;;;14.20;99.90;;;;;;5090141;28;20178;-70
2023/09/07 04:30:24;;;;;;;6.57;5.07;;;14.20;99.90;;;;;;5091158;28;20838;-70
2023/09/07 04:32:50;;;;;;;9.23;5.70;;;14.10;99.90;;;;;;5091248;28;20420;-70
2023/09/07 04:35:15;;;;;;;6.00;5.40;;;14.10;99.90;;;;;;5090842;28;20279;-70
2023/09/07 04:37:45;;;;;;;14.60;6.80;;;14.00;99.90;;;;;;5089745;28;20178;-70
2023/09/07 04:40:11;;;;;;;8.10;6.83;;;14.00;99.90;;;;;;5090076;28;20418;-70
2023/09/07 04:42:38;;;;;;;9.13;5.83;;;14.00;99.90;;;;;;5089549;28;20436;-69
2023/09/07 04:45:05;;;;;;;7.50;6.50;;;14.10;99.90;;;;;;5087823;28;20426;-69
2023/09/07 04:47:31;;;;;;;6.47;5.80;;;14.00;99.90;;;;;;5089727;28;20473;-71
2023/09/07 04:49:57;;;;;;;7.17;6.23;;;14.00;99.90;;;;;;5087508;28;20461;-70
2023/09/07 04:52:23;;;;;;;7.60;6.90;;;13.90;99.90;;;;;;5089678;28;20939;-70
2023/09/07 04:54:48;;;;;;;7.53;6.57;;;13.90;99.90;;;;;;5089022;28;20337;-70
2023/09/07 04:57:19;;;;;;;9.67;6.30;;;13.80;99.90;;;;;;5088865;28;20229;-70
2023/09/07 04:59:45;;;;;;;10.53;5.77;;;13.80;99.90;;;;;;5070695;28;20749;-70
2023/09/07 05:02:11;;;;;;;7.40;6.57;;;13.90;99.90;;;;;;5088556;28;20448;-70
2023/09/07 05:04:37;;;;;;;12.00;7.30;;;13.90;99.90;;;;;;5087285;28;20173;-70
2023/09/07 05:07:03;;;;;;;6.80;5.77;;;13.90;99.90;;;;;;5088538;28;20807;-70
2023/09/07 05:09:29;;;;;;;6.70;6.00;;;13.90;99.90;;;;;;5086793;28;20428;-70
2023/09/07 05:11:55;;;;;;;6.07;5.47;;;13.80;99.90;;;;;;5088503;28;20672;-70
2023/09/07 05:14:23;;;;;;;8.13;6.17;;;13.80;99.90;;;;;;5088459;28;20425;-69
2023/09/07 05:16:49;;;;;;;7.37;6.20;;;13.80;99.90;;;;;;5088401;28;20871;-70
2023/09/07 05:19:15;;;;;;;10.00;6.60;;;13.80;99.90;;;;;;5088797;28;20508;-70
2023/09/07 05:21:40;;;;;;;13.53;6.50;;;13.80;99.90;;;;;;5088543;28;20184;-70
2023/09/07 05:24:06;;;;;;;8.60;6.83;;;13.80;99.90;;;;;;5087461;28;20186;-70
2023/09/07 05:26:32;;;;;;;9.20;6.80;;;13.80;99.90;;;;;;5088269;28;20594;-70
2023/09/07 05:28:57;;;;;;;8.03;7.17;;;13.80;99.90;;;;;;5088229;28;20187;-70
2023/09/07 05:31:23;;;;;;;9.43;7.23;;;13.80;99.90;;;;;;5086661;28;20782;-70
2023/09/07 05:33:48;;;;;;;19.83;7.13;;;13.80;99.90;;;;;;5069706;28;20561;-70
2023/09/07 05:36:14;;;;;;;7.00;6.30;;;13.90;99.90;;;;;;5085619;28;20222;-70
2023/09/07 05:38:40;;;;;;;10.23;6.07;;;14.00;99.90;;;;;;5087942;28;20214;-70
2023/09/07 05:41:06;;;;;;;7.97;7.03;;;14.10;99.90;;;;;;5086414;28;20183;-70
2023/09/07 05:43:32;;;;;;;9.40;6.70;;;14.10;99.90;;;;;;5087889;28;20184;-70
2023/09/07 05:45:57;;;;;;;7.10;6.40;;;14.20;99.90;;;;;;5086167;28;20456;-70
2023/09/07 05:48:23;;;;;;;7.83;6.70;;;14.20;99.90;;;;;;5086285;28;20539;-70
2023/09/07 05:50:49;;;;;;;7.53;6.30;;;14.20;99.90;;;;;;5087789;28;20211;-70
2023/09/07 05:53:14;;;;;;;8.50;6.23;;;14.30;99.90;;;;;;5087676;28;20652;-70
2023/09/07 05:55:40;;;;;;;8.37;6.67;;;14.30;99.90;;;;;;5087544;28;20272;-70
2023/09/07 05:58:07;;;;;;;10.33;6.67;;;14.50;99.90;;;;;;5087505;28;20194;-70
2023/09/07 06:00:35;;;;;;;8.90;5.97;;;14.70;99.90;;;;;;5087593;28;20731;-70
2023/09/07 06:03:00;;;;;;;14.07;7.20;;;14.70;99.90;;;;;;5087660;28;20933;-70
2023/09/07 06:05:26;;;;;;;7.00;6.13;;;14.90;99.90;;;;;;5087449;28;20438;-69
2023/09/07 06:07:52;;;;;;;10.87;6.13;;;15.00;99.90;;;;;;5087698;28;20592;-70
2023/09/07 06:10:19;;;;;;;9.10;6.90;;;15.20;99.90;;;;;;5085636;28;20221;-70
2023/09/07 06:12:45;;;;;;;13.50;6.70;;;15.30;99.90;;;;;;5087538;28;20549;-68
2023/09/07 06:15:10;;;;;;;8.70;6.83;;;15.50;99.90;;;;;;5087311;28;20458;-68
2023/09/07 06:17:36;;;;;;;19.57;7.03;;;15.70;99.90;;;;;;5087192;28;20195;-68
2023/09/07 06:20:03;;;;;;;11.60;6.90;;;16.10;99.90;;;;;;5087605;28;20425;-69
2023/09/07 06:22:28;;;;;;;9.33;6.20;;;16.40;99.90;;;;;;5087296;28;20271;-69
2023/09/07 06:24:54;;;;;;;11.83;7.50;;;16.70;99.90;;;;;;5087272;28;20537;-68
2023/09/07 06:27:19;;;;;;;8.83;6.60;;;17.10;99.90;;;;;;5087190;28;20540;-68
2023/09/07 06:29:46;;;;;;;9.80;6.03;;;17.30;99.90;;;;;;5085542;28;20192;-68
2023/09/07 06:32:11;;;;;;;7.90;5.97;;;17.40;99.90;;;;;;5085590;28;20203;-69
2023/09/07 06:34:37;;;;;;;7.60;6.23;;;17.50;99.90;;;;;;5087109;28;20430;-68
2023/09/07 06:37:03;;;;;;;9.80;6.00;;;17.20;99.90;;;;;;5086962;28;20197;-68
2023/09/07 06:39:28;;;;;;;7.53;5.97;;;17.70;99.90;;;;;;5087008;28;20182;-68
2023/09/07 06:41:54;;;;;;;7.37;6.23;;;17.50;99.90;;;;;;5087014;28;20190;-68
2023/09/07 06:44:19;;;;;;;8.80;6.30;;;17.30;99.90;;;;;;5085591;28;20777;-68
2023/09/07 06:46:45;;;;;;;8.97;5.83;;;17.10;99.90;;;;;;5086740;28;20209;-68
2023/09/07 06:49:11;;;;;;;10.03;6.63;;;17.00;99.90;;;;;;5086874;28;20549;-68
2023/09/07 06:51:36;;;;;;;6.97;6.27;;;16.90;99.90;;;;;;5086968;28;20221;-68
2023/09/07 06:54:03;;;;;;;9.67;6.27;;;16.80;99.90;;;;;;5087006;28;20606;-68
2023/09/07 06:56:31;;;;;;;7.73;6.30;;;16.80;99.90;;;;;;5086837;28;20683;-68
2023/09/07 06:58:56;;;;;;;15.97;7.10;;;16.80;99.90;;;;;;5086834;28;20416;-68
2023/09/07 07:01:22;;;;;;;10.70;6.40;;;16.80;99.90;;;;;;5068746;28;20932;-68
2023/09/07 07:03:49;;;;;;;8.03;6.70;;;16.80;99.90;;;;;;5068931;28;20240;-68
2023/09/07 07:06:14;;;;;;;10.60;6.43;;;16.80;99.90;;;;;;5085465;28;20848;-68
2023/09/07 07:08:40;;;;;;;7.00;6.30;;;16.90;99.90;;;;;;5087081;28;20537;-68
2023/09/07 07:11:05;;;;;;;7.70;6.10;;;17.00;99.90;;;;;;5087033;28;20708;-68
2023/09/07 07:13:31;;;;;;;7.93;6.17;;;17.00;99.90;;;;;;5087178;28;20185;-68
2023/09/07 07:15:57;;;;;;;8.00;6.07;;;17.10;99.90;;;;;;5087222;28;20209;-68
2023/09/07 07:18:22;;;;;;;8.33;7.03;;;17.20;99.90;;;;;;5085617;28;20296;-68
2023/09/07 07:20:48;;;;;;;11.20;6.77;;;17.20;99.90;;;;;;5087438;28;20193;-68
2023/09/07 07:23:14;;;;;;;6.93;5.90;;;17.30;99.90;;;;;;5087886;28;20178;-68
2023/09/07 07:25:39;;;;;;;8.80;7.03;;;17.40;99.90;;;;;;5087888;28;20369;-68
2023/09/07 07:28:06;;;;;;;8.40;5.20;;;17.40;99.90;;;;;;5087473;28;20654;-68
2023/09/07 07:30:36;;;;;;;10.03;5.90;;;17.50;99.90;;;;;;5087364;28;20234;-68
2023/09/07 07:33:05;;;;;;;15.63;5.60;;;17.60;99.90;;;;;;5087140;28;20903;-68
2023/09/07 07:35:32;;;;;;;13.90;5.50;;;17.70;99.90;;;;;;5087092;28;20434;-68
2023/09/07 07:37:58;;;;;;;6.80;5.70;;;17.70;99.90;;;;;;5087068;28;20417;-68
2023/09/07 07:40:24;;;;;;;10.93;6.17;;;17.80;99.90;;;;;;5085492;28;20489;-68
2023/09/07 07:42:52;;;;;;;11.23;5.57;;;17.80;99.90;;;;;;5086846;28;20188;-68
2023/09/07 07:45:19;;;;;;;8.37;5.20;;;17.90;99.90;;;;;;5087021;28;20237;-68
2023/09/07 07:47:46;;;;;;;6.53;5.23;;;18.10;99.90;;;;;;5086678;28;20424;-67
2023/09/07 07:50:12;;;;;;;7.93;5.97;;;18.20;99.90;;;;;;5086540;28;20862;-68
2023/09/07 07:52:37;;;;;;;10.57;6.30;;;18.30;99.90;;;;;;5087147;28;20418;-68
2023/09/07 07:55:03;;;;;;;10.03;6.90;;;18.40;99.90;;;;;;5087099;28;20706;-68
2023/09/07 07:57:29;;;;;;;7.70;6.37;;;18.40;99.90;;;;;;5087281;28;20189;-68
2023/09/07 07:59:56;;;;;;;7.87;7.07;;;18.50;99.90;;;;;;5088172;28;20427;-68
2023/09/07 08:02:21;;;;;;;9.57;6.10;;;18.70;99.90;;;;;;5090844;28;20189;-68
2023/09/07 08:04:47;;;;;;;9.57;6.20;;;18.80;99.90;;;;;;5090688;28;20983;-68
2023/09/07 08:07:13;;;;;;;9.83;5.43;;;18.90;99.90;;;;;;5090531;28;20198;-68
2023/09/07 08:09:38;;;;;;;6.17;5.33;;;19.10;99.90;;;;;;5089117;28;20235;-68
2023/09/07 08:12:05;;;;;;;7.97;5.40;;;19.20;99.90;;;;;;5090565;28;20174;-68
2023/09/07 08:14:31;;;;;;;9.40;5.73;;;19.20;99.90;;;;;;5089068;28;20562;-67
2023/09/07 08:16:57;;;;;;;7.30;5.73;;;19.40;99.90;;;;;;5090043;28;20851;-68
2023/09/07 08:19:23;;;;;;;12.03;5.30;;;19.50;99.90;;;;;;5090243;28;20863;-68
2023/09/07 08:21:49;;;;;;;11.23;5.70;;;19.60;99.90;;;;;;5090276;28;20507;-68
2023/09/07 08:24:14;;;;;;;6.97;5.70;;;19.60;99.90;;;;;;5088395;28;20232;-68
2023/09/07 08:26:40;;;;;;;9.17;5.77;;;19.70;99.90;;;;;;5090207;28;20622;-68
2023/09/07 08:29:06;;;;;;;8.90;5.17;;;19.80;99.90;;;;;;5089844;28;20190;-68
2023/09/07 08:31:33;;;;;;;6.10;5.60;;;20.00;99.90;;;;;;5090206;28;20545;-67
2023/09/07 08:34:02;;;;;;;6.60;4.77;;;20.10;99.90;;;;;;5089982;28;20412;-68
2023/09/07 08:36:29;;;;;;;8.80;5.60;;;20.20;99.90;;;;;;5088384;28;20519;-68
2023/09/07 08:38:55;;;;;;;8.60;6.20;;;20.30;99.90;;;;;;5090062;28;20435;-68
2023/09/07 08:41:21;;;;;;;5.90;5.30;;;20.40;99.90;;;;;;5089816;28;20423;-68
2023/09/07 08:43:47;;;;;;;11.83;6.17;;;20.50;99.90;;;;;;5088264;28;20429;-68
2023/09/07 08:46:17;;;;;;;7.30;4.97;;;20.70;99.90;;;;;;5089511;28;20249;-68
2023/09/07 08:48:46;;;;;;;18.13;6.10;;;20.70;99.90;;;;;;5089660;28;20186;-68
2023/09/07 08:51:12;;;;;;;8.30;6.10;;;20.90;99.90;;;;;;5089307;28;21348;-68
2023/09/07 08:53:40;;;;;;;9.50;6.10;;;21.10;99.90;;;;;;5087644;28;20413;-68
2023/09/07 08:56:09;;;;;;;8.47;6.03;;;21.20;99.90;;;;;;5089273;28;21069;-68
2023/09/07 08:58:36;;;;;;;17.63;6.30;;;21.30;99.90;;;;;;5087502;28;20424;-68
2023/09/07 09:01:03;;;;;;;10.53;6.37;;;21.50;99.90;;;;;;5089163;28;20490;-68
2023/09/07 09:03:29;;;;;;;7.53;6.07;;;21.70;99.90;;;;;;5089407;28;20824;-67
2023/09/07 09:05:56;;;;;;;7.77;5.20;;;21.80;99.90;;;;;;5089463;28;20452;-68
2023/09/07 09:08:24;;;;;;;11.00;6.10;;;22.10;99.90;;;;;;5089268;28;20989;-68
2023/09/07 09:11:00;;;;;;;8.93;5.93;;;22.40;99.90;;;;;;5088396;28;20471;-68
2023/09/07 09:13:32;;;;;;;6.37;5.77;;;22.50;99.90;;;;;;5088736;28;20401;-68
2023/09/07 09:16:01;;;;;;;11.93;5.60;;;22.80;99.90;;;;;;5087751;28;20443;-68
2023/09/07 09:18:27;;;;;;;8.87;6.50;;;23.10;99.90;;;;;;5089322;28;20500;-66
2023/09/07 09:20:54;;;;;;;8.50;6.53;;;23.50;99.90;;;;;;5087110;28;20847;-67
2023/09/07 09:23:20;;;;;;;8.37;6.10;;;23.70;99.90;;;;;;5088726;28;20484;-67
2023/09/07 09:25:48;;;;;;;10.57;5.10;;;24.10;99.90;;;;;;5088521;28;20447;-67
2023/09/07 09:28:14;;;;;;;8.53;5.73;;;24.80;99.90;;;;;;5088688;28;20610;-69
2023/09/07 09:30:43;;;;;;;6.67;5.53;;;25.20;99.90;;;;;;5089002;28;20471;-68
2023/09/07 09:33:09;;;;;;;7.13;6.17;;;25.50;99.90;;;;;;5087011;28;20194;-68
2023/09/07 09:35:35;;;;;;;8.20;6.23;;;25.80;99.90;;;;;;5088652;28;20476;-68
2023/09/07 09:38:05;;;;;;;9.30;5.73;;;25.60;99.90;;;;;;5088489;28;20847;-68
2023/09/07 09:40:34;;;;;;;11.50;5.33;;;26.40;99.90;;;;;;5088629;28;20239;-68
2023/09/07 09:43:02;;;;;;;10.30;5.70;;;27.10;99.90;;;;;;5089332;28;20415;-69
2023/09/07 09:45:28;;;;;;;8.53;5.13;;;27.30;99.90;;;;;;5086933;28;20444;-67
2023/09/07 09:47:59;;;;;;;8.97;5.83;;;27.50;99.90;;;;;;5088522;28;20428;-69
2023/09/07 09:50:25;;;;;;;10.10;6.00;;;27.70;99.90;;;;;;5088562;28;20456;-68
2023/09/07 09:52:53;;;;;;;9.60;5.47;;;27.50;99.90;;;;;;5086988;28;20541;-68
2023/09/07 09:55:19;;;;;;;7.60;4.97;;;28.10;99.90;;;;;;5088119;28;20218;-67
2023/09/07 09:57:44;;;;;;;6.30;4.70;;;28.50;99.90;;;;;;5088314;28;20922;-67
2023/09/07 10:00:19;;;;;;;5.97;5.37;;;29.00;99.90;;;;;;5086787;28;20481;-69
2023/09/07 10:02:50;;;;;;;10.03;4.70;;;28.80;99.90;;;;;;5088487;28;20265;-68
2023/09/07 10:05:17;;;;;;;7.23;5.10;;;29.00;99.90;;;;;;5087449;28;20433;-69
2023/09/07 10:07:44;;;;;;;11.97;4.73;;;29.00;99.90;;;;;;5088513;28;20423;-67
2023/09/07 10:10:13;;;;;;;9.17;5.63;;;29.70;99.90;;;;;;5088372;28;20491;-67
2023/09/07 10:12:55;;;;;;;10.63;5.27;;;29.70;99.90;;;;;;5088527;28;20787;-67
2023/09/07 10:15:23;;;;;;;7.37;4.77;;;29.90;99.90;;;;;;5088419;28;20433;-67
2023/09/07 10:17:50;;;;;;;7.70;4.90;;;29.70;99.90;;;;;;5088722;28;20408;-67
2023/09/07 10:20:17;;;;;;;8.83;4.63;;;29.90;99.90;;;;;;5088292;28;20652;-67
2023/09/07 10:22:43;;;;;;;13.07;5.10;;;30.10;99.90;;;;;;5088543;28;20421;-67
2023/09/07 10:25:22;;;;;;;6.70;5.30;;;29.70;99.90;;;;;;5088285;28;20447;-68
2023/09/07 10:27:48;;;;;;;7.03;4.93;;;30.10;99.90;;;;;;5086785;28;20507;-67
2023/09/07 10:30:22;;;;;;;7.63;5.63;;;30.50;99.90;;;;;;5087896;28;20479;-68
2023/09/07 10:32:48;;;;;;;5.20;4.63;;;30.70;99.90;;;;;;5087988;28;20916;-68
2023/09/07 10:35:15;;;;;;;8.23;4.47;;;31.00;99.90;;;;;;5088001;28;20591;-69
2023/09/07 10:37:43;;;;;;;7.30;4.90;;;30.80;99.90;;;;;;5087841;28;20182;-68
2023/09/07 10:40:11;;;;;;;5.20;4.70;;;30.80;99.90;;;;;;5086037;28;20427;-69
2023/09/07 10:42:37;;;;;;;4.77;4.30;;;31.00;99.90;;;;;;5087736;28;20420;-69
2023/09/07 10:45:16;;;;;;;7.20;5.40;;;31.10;99.90;;;;;;5087529;28;20439;-69
2023/09/07 10:47:47;;;;;;;7.07;5.13;;;31.40;99.90;;;;;;5087654;28;20404;-69
2023/09/07 10:50:13;;;;;;;5.23;4.77;;;31.10;99.90;;;;;;5087483;28;20458;-69
2023/09/07 10:52:41;;;;;;;9.77;5.03;;;31.40;99.90;;;;;;5087496;28;20432;-69
2023/09/07 10:55:10;;;;;;;17.10;6.00;;;31.30;99.90;;;;;;5087261;28;20297;-70
2023/09/07 10:57:43;;;;;;;5.80;5.17;;;31.30;99.90;;;;;;5087196;28;20446;-67
2023/09/07 11:00:10;;;;;;;5.73;4.83;;;31.40;99.90;;;;;;5087297;28;20436;-68
2023/09/07 11:02:37;;;;;;;6.43;4.83;;;31.40;99.90;;;;;;5087022;28;20424;-69
2023/09/07 11:05:04;;;;;;;5.80;5.07;;;31.50;99.90;;;;;;5086852;28;20412;-67
2023/09/07 11:07:30;;;;;;;7.50;5.17;;;31.50;99.90;;;;;;5068808;28;20473;-68
2023/09/07 11:09:55;;;;;;;9.00;4.83;;;31.50;99.90;;;;;;5086830;28;20428;-67
2023/09/07 11:12:21;;;;;;;5.73;4.60;;;31.50;99.90;;;;;;5085385;28;20424;-67
2023/09/07 11:14:48;;;;;;;6.07;5.50;;;31.60;99.90;;;;;;5086889;28;20264;-67
2023/09/07 11:17:13;;;;;;;7.30;5.50;;;31.60;99.90;;;;;;5086828;28;20198;-67
2023/09/07 11:19:39;;;;;;;7.67;5.90;;;31.20;99.90;;;;;;5086801;28;20940;-68
2023/09/07 11:22:05;;;;;;;5.37;4.87;;;31.30;99.90;;;;;;5086684;28;20222;-68
2023/09/07 11:24:34;;;;;;;5.80;5.20;;;31.40;99.90;;;;;;5087016;28;20186;-68
2023/09/07 11:27:00;;;;;;;6.57;4.87;;;31.30;99.90;;;;;;5086602;28;21001;-68
2023/09/07 11:29:26;;;;;;;6.10;4.80;;;31.50;99.90;;;;;;5085296;28;20420;-68
2023/09/07 11:31:51;;;;;;;7.33;5.10;;;31.60;99.90;;;;;;5086542;28;20203;-68
2023/09/07 11:34:17;;;;;;;5.27;4.73;;;31.60;99.90;;;;;;5086873;28;20240;-69
2023/09/07 11:36:43;;;;;;;6.87;5.10;;;31.50;99.90;;;;;;5089049;28;20657;-68
2023/09/07 11:39:12;;;;;;;5.30;4.80;;;31.80;99.90;;;;;;5090352;28;20175;-68
2023/09/07 11:41:42;;;;;;;6.13;5.00;;;31.80;99.90;;;;;;5090486;28;20789;-68
2023/09/07 11:44:08;;;;;;;4.67;4.27;;;31.80;99.90;;;;;;5088970;28;20509;-68
2023/09/07 11:46:34;;;;;;;12.73;5.60;;;31.80;99.90;;;;;;5090166;28;20432;-68
2023/09/07 11:49:00;;;;;;;7.37;5.40;;;31.80;99.90;;;;;;5090536;28;20421;-68
2023/09/07 11:51:25;;;;;;;4.97;4.67;;;31.90;99.90;;;;;;5090283;28;20478;-68
2023/09/07 11:53:51;;;;;;;5.40;5.00;;;32.00;99.90;;;;;;5090226;28;20175;-67
2023/09/07 11:56:17;;;;;;;6.23;5.37;;;32.10;99.90;;;;;;5090403;28;20271;-67
2023/09/07 11:58:43;;;;;;;7.63;4.80;;;32.10;99.90;;;;;;5091240;28;20182;-68
2023/09/07 12:01:09;;;;;;;7.60;4.80;;;32.10;99.90;;;;;;5091070;28;20206;-68
2023/09/07 12:03:36;;;;;;;6.87;5.00;;;32.00;99.90;;;;;;5090729;28;20531;-70
2023/09/07 12:06:02;;;;;;;6.53;4.80;;;32.00;99.90;;;;;;5090789;28;20523;-68
2023/09/07 12:08:28;;;;;;;10.03;4.77;;;32.10;99.90;;;;;;5090866;28;20182;-69
2023/09/07 12:10:53;;;;;;;11.10;5.20;;;32.10;99.90;;;;;;5090616;28;20491;-70
2023/09/07 12:13:19;;;;;;;5.33;4.83;;;32.10;99.90;;;;;;5090859;28;20748;-68
2023/09/07 12:15:45;;;;;;;5.50;5.00;;;31.70;99.90;;;;;;5090712;28;20371;-69
2023/09/07 12:18:10;;;;;;;13.40;5.30;;;31.90;99.90;;;;;;5089387;28;20637;-69
2023/09/07 12:20:36;;;;;;;9.67;4.47;;;31.90;99.90;;;;;;5090817;28;20316;-68
2023/09/07 12:23:04;;;;;;;10.23;5.10;;;31.80;99.90;;;;;;5091032;28;20189;-68
2023/09/07 12:25:30;;;;;;;8.43;4.30;;;31.80;99.90;;;;;;5090952;28;20206;-71
2023/09/07 12:27:56;;;;;;;4.87;4.40;;;31.90;99.90;;;;;;5091413;28;20478;-69
2023/09/07 12:30:23;;;;;;;5.50;4.20;;;32.00;99.90;;;;;;5089672;28;20784;-66
2023/09/07 12:32:50;;;;;;;8.00;5.07;;;31.80;99.90;;;;;;5091308;28;20415;-67
2023/09/07 12:35:15;;;;;;;7.70;4.50;;;31.80;99.90;;;;;;5091272;28;20973;-69
2023/09/07 12:37:41;;;;;;;4.90;4.57;;;31.80;99.90;;;;;;5091215;28;20413;-70
2023/09/07 12:40:11;;;;;;;5.83;5.17;;;31.20;99.90;;;;;;5089673;28;20224;-68
2023/09/07 12:42:38;;;;;;;7.80;4.00;;;30.90;99.90;;;;;;5091075;28;20448;-68